Time;durP1;ratioP1;P1;durP2;ratioP2;P2;SDS_P1;SDS_P2;PMS_P1;PMS_P2;Temp;Humidity;BMP_temperature;BMP_pressure;BME280_temperature;BME280_humidity;BME280_pressure;Samples;Min_cycle;Max_cycle;Signal;HPM_P1;HPM_P2
2024/03/01 00:01:58;;;;;;;7.18;2.72;;;;;;;;;;5099165;27;20039;-65
2024/03/01 00:04:25;;;;;;;1.55;1.45;;;;;;;;;;5102805;28;20041;-65
2024/03/01 00:06:51;;;;;;;3.10;1.92;;;;;;;;;;5100538;27;20032;-65
2024/03/01 00:09:17;;;;;;;2.10;1.85;;;;;;;;;;5088169;28;20123;-65
2024/03/01 00:11:44;;;;;;;4.20;1.85;;;;;;;;;;5103205;28;20462;-64
2024/03/01 00:14:10;;;;;;;3.45;1.67;;;;;;;;;;5083302;28;20032;-64
2024/03/01 00:16:36;;;;;;;1.63;1.52;;;;;;;;;;5102696;28;20030;-64
2024/03/01 00:19:02;;;;;;;5.05;2.20;;;;;;;;;;5098906;27;20426;-64
2024/03/01 00:21:28;;;;;;;3.50;1.65;;;;;;;;;;5084314;28;20101;-64
2024/03/01 00:23:55;;;;;;;4.10;1.77;;;;;;;;;;5084863;28;20795;-64
2024/03/01 00:26:21;;;;;;;11.95;2.13;;;;;;;;;;5103280;27;20887;-64
2024/03/01 00:28:48;;;;;;;1.60;1.60;;;;;;;;;;5081982;28;20416;-65
2024/03/01 00:31:14;;;;;;;3.40;1.77;;;;;;;;;;5103721;28;20404;-64
2024/03/01 00:33:40;;;;;;;1.70;1.60;;;;;;;;;;5104537;27;20051;-64
2024/03/01 00:36:07;;;;;;;1.70;1.52;;;;;;;;;;5099699;28;20044;-64
2024/03/01 00:38:34;;;;;;;1.58;1.50;;;;;;;;;;5099740;27;20035;-64
2024/03/01 00:41:00;;;;;;;1.75;1.65;;;;;;;;;;5103200;27;20421;-64
2024/03/01 00:43:26;;;;;;;3.83;1.52;;;;;;;;;;5097974;28;20020;-64
2024/03/01 00:45:52;;;;;;;3.30;2.85;;;;;;;;;;5096725;28;20465;-64
2024/03/01 00:48:18;;;;;;;2.30;1.77;;;;;;;;;;5072693;28;20024;-64
2024/03/01 00:50:44;;;;;;;1.50;1.40;;;;;;;;;;5092680;28;20028;-64
2024/03/01 00:53:11;;;;;;;2.53;2.05;;;;;;;;;;5098376;28;20877;-64
2024/03/01 00:55:38;;;;;;;3.72;1.60;;;;;;;;;;5089816;27;20024;-64
2024/03/01 00:58:04;;;;;;;3.10;1.95;;;;;;;;;;5107361;28;20217;-64
2024/03/01 01:00:31;;;;;;;1.70;1.60;;;;;;;;;;5096703;28;20020;-64
2024/03/01 01:02:57;;;;;;;1.55;1.45;;;;;;;;;;5083195;28;20041;-64
2024/03/01 01:05:23;;;;;;;1.98;1.35;;;;;;;;;;5094698;28;20040;-64
2024/03/01 01:07:50;;;;;;;1.30;1.30;;;;;;;;;;5099719;28;20540;-64
2024/03/01 01:10:17;;;;;;;3.20;1.88;;;;;;;;;;5094933;27;20031;-64
2024/03/01 01:12:43;;;;;;;1.40;1.40;;;;;;;;;;5075189;28;20100;-65
2024/03/01 01:15:09;;;;;;;1.10;1.10;;;;;;;;;;5097874;28;20039;-64
2024/03/01 01:17:35;;;;;;;1.20;1.20;;;;;;;;;;5079480;28;20024;-64
2024/03/01 01:20:03;;;;;;;1.30;1.30;;;;;;;;;;5084125;28;20016;-64
2024/03/01 01:22:29;;;;;;;2.00;1.65;;;;;;;;;;5098607;28;20024;-63
2024/03/01 01:24:57;;;;;;;3.30;1.40;;;;;;;;;;5094044;27;20031;-64
2024/03/01 01:27:24;;;;;;;1.30;1.30;;;;;;;;;;5092128;28;20345;-64
2024/03/01 01:29:50;;;;;;;1.45;1.35;;;;;;;;;;5080404;28;20292;-64
2024/03/01 01:32:16;;;;;;;1.45;1.45;;;;;;;;;;5078495;28;20028;-64
2024/03/01 01:34:42;;;;;;;1.58;1.58;;;;;;;;;;5098782;28;20043;-63
2024/03/01 01:37:08;;;;;;;2.92;1.58;;;;;;;;;;5075896;28;20123;-63
2024/03/01 01:39:34;;;;;;;1.48;1.48;;;;;;;;;;5078443;28;20036;-63
2024/03/01 01:42:01;;;;;;;1.33;1.33;;;;;;;;;;5095855;28;20047;-64
2024/03/01 01:44:27;;;;;;;1.27;1.25;;;;;;;;;;5096585;28;20365;-64
2024/03/01 01:46:53;;;;;;;1.35;1.30;;;;;;;;;;5092524;28;20056;-67
2024/03/01 01:49:21;;;;;;;1.48;1.38;;;;;;;;;;5091870;28;20801;-64
2024/03/01 01:51:48;;;;;;;2.05;1.95;;;;;;;;;;5074621;28;20036;-64
2024/03/01 01:54:15;;;;;;;1.40;1.40;;;;;;;;;;5097706;27;20119;-69
2024/03/01 01:56:41;;;;;;;3.22;2.08;;;;;;;;;;5094257;28;20027;-63
2024/03/01 01:59:08;;;;;;;1.58;1.48;;;;;;;;;;5074706;28;20358;-63
2024/03/01 02:01:35;;;;;;;4.82;2.28;;;;;;;;;;5074262;28;20051;-63
2024/03/01 02:04:01;;;;;;;1.30;1.30;;;;;;;;;;5095912;28;20429;-63
2024/03/01 02:06:28;;;;;;;1.30;1.30;;;;;;;;;;5095445;27;20028;-64
2024/03/01 02:08:54;;;;;;;1.20;1.20;;;;;;;;;;5091238;28;20020;-63
2024/03/01 02:11:21;;;;;;;1.33;1.33;;;;;;;;;;5079717;28;20035;-63
2024/03/01 02:13:47;;;;;;;4.13;1.23;;;;;;;;;;5096745;28;20016;-65
2024/03/01 02:16:13;;;;;;;1.23;1.23;;;;;;;;;;5095284;28;20484;-63
2024/03/01 02:18:43;;;;;;;1.00;1.00;;;;;;;;;;5091804;28;20150;-63
2024/03/01 02:21:12;;;;;;;1.10;1.10;;;;;;;;;;5087667;28;20392;-63
2024/03/01 02:23:39;;;;;;;1.15;1.15;;;;;;;;;;5084488;28;20035;-64
2024/03/01 02:26:06;;;;;;;1.10;1.10;;;;;;;;;;5094054;28;20038;-64
2024/03/01 02:28:32;;;;;;;1.00;1.00;;;;;;;;;;5099948;27;20029;-64
2024/03/01 02:30:59;;;;;;;1.42;1.33;;;;;;;;;;5094483;28;20556;-65
2024/03/01 02:33:26;;;;;;;1.30;1.30;;;;;;;;;;5093007;28;20024;-64
2024/03/01 02:35:52;;;;;;;4.93;1.50;;;;;;;;;;5089500;28;20696;-65
2024/03/01 02:38:18;;;;;;;1.38;1.38;;;;;;;;;;5078192;28;20058;-65
2024/03/01 02:40:44;;;;;;;1.33;1.27;;;;;;;;;;5090360;28;20034;-64
2024/03/01 02:43:10;;;;;;;1.42;1.40;;;;;;;;;;5090702;28;20443;-65
2024/03/01 02:45:37;;;;;;;1.20;1.20;;;;;;;;;;5097692;28;20032;-65
2024/03/01 02:48:04;;;;;;;3.22;1.20;;;;;;;;;;5082497;28;20042;-65
2024/03/01 02:50:30;;;;;;;1.10;1.10;;;;;;;;;;5095048;28;20137;-65
2024/03/01 02:52:56;;;;;;;1.15;1.15;;;;;;;;;;5079243;28;20183;-65
2024/03/01 02:55:22;;;;;;;1.23;1.23;;;;;;;;;;5089620;28;20456;-65
2024/03/01 02:57:49;;;;;;;1.42;1.33;;;;;;;;;;5085504;28;20039;-64
2024/03/01 03:00:16;;;;;;;1.10;1.10;;;;;;;;;;5080527;28;20481;-65
2024/03/01 03:02:42;;;;;;;1.10;1.10;;;;;;;;;;5097442;28;20518;-65
2024/03/01 03:05:09;;;;;;;1.10;1.10;;;;;;;;;;5082977;28;20239;-65
2024/03/01 03:07:35;;;;;;;1.20;1.20;;;;;;;;;;5090063;28;20035;-65
2024/03/01 03:10:01;;;;;;;1.20;1.20;;;;;;;;;;5093502;28;20509;-65
2024/03/01 03:12:27;;;;;;;1.30;1.30;;;;;;;;;;5091540;28;20050;-65
2024/03/01 03:14:54;;;;;;;1.10;1.10;;;;;;;;;;5090421;28;20032;-65
2024/03/01 03:17:21;;;;;;;1.20;1.20;;;;;;;;;;5100673;28;20015;-65
2024/03/01 03:19:48;;;;;;;1.48;1.40;;;;;;;;;;5079444;28;20114;-66
2024/03/01 03:22:15;;;;;;;1.10;1.10;;;;;;;;;;5081278;28;20161;-66
2024/03/01 03:24:41;;;;;;;1.30;1.30;;;;;;;;;;5098571;28;20124;-66
2024/03/01 03:27:07;;;;;;;1.30;1.30;;;;;;;;;;5078940;28;20031;-66
2024/03/01 03:29:34;;;;;;;1.00;1.00;;;;;;;;;;5094467;28;20040;-66
2024/03/01 03:32:00;;;;;;;1.27;1.20;;;;;;;;;;5096947;28;20038;-66
2024/03/01 03:34:26;;;;;;;3.83;1.45;;;;;;;;;;5082132;28;20024;-66
2024/03/01 03:36:53;;;;;;;1.20;1.20;;;;;;;;;;5090786;28;20067;-67
2024/03/01 03:39:19;;;;;;;1.17;1.17;;;;;;;;;;5105380;28;20020;-67
2024/03/01 03:41:45;;;;;;;1.10;1.10;;;;;;;;;;5096649;28;20024;-67
2024/03/01 03:44:11;;;;;;;1.00;1.00;;;;;;;;;;5082624;28;20105;-66
2024/03/01 03:46:41;;;;;;;1.10;1.10;;;;;;;;;;5091735;28;20429;-66
2024/03/01 03:49:11;;;;;;;1.10;1.10;;;;;;;;;;5095554;28;20436;-66
2024/03/01 03:51:37;;;;;;;1.10;1.10;;;;;;;;;;5081260;28;20032;-66
2024/03/01 03:54:04;;;;;;;1.00;1.00;;;;;;;;;;5092567;28;20520;-66
2024/03/01 03:56:31;;;;;;;1.17;1.17;;;;;;;;;;5091883;28;20093;-66
2024/03/01 03:58:58;;;;;;;3.15;1.20;;;;;;;;;;5077413;28;20040;-67
2024/03/01 04:01:24;;;;;;;1.10;1.10;;;;;;;;;;5085300;28;20036;-67
2024/03/01 04:03:51;;;;;;;1.98;1.40;;;;;;;;;;5094995;28;20107;-66
2024/03/01 04:06:17;;;;;;;1.02;1.02;;;;;;;;;;5100324;28;20038;-67
2024/03/01 04:08:43;;;;;;;1.10;1.10;;;;;;;;;;5101930;28;20028;-67
2024/03/01 04:11:12;;;;;;;1.20;1.20;;;;;;;;;;5089333;28;20056;-67
2024/03/01 04:13:39;;;;;;;1.10;1.10;;;;;;;;;;5078875;28;20019;-67
2024/03/01 04:16:06;;;;;;;1.10;1.10;;;;;;;;;;5059053;28;20024;-67
2024/03/01 04:18:35;;;;;;;1.00;1.00;;;;;;;;;;5073139;28;20028;-67
2024/03/01 04:21:01;;;;;;;1.20;1.20;;;;;;;;;;5096259;28;20355;-67
2024/03/01 04:23:28;;;;;;;1.10;1.10;;;;;;;;;;5082553;28;20384;-67
2024/03/01 04:25:55;;;;;;;1.30;1.30;;;;;;;;;;5058735;28;20027;-67
2024/03/01 04:28:27;;;;;;;1.20;1.20;;;;;;;;;;5100327;28;20515;-67
2024/03/01 04:30:54;;;;;;;1.10;1.10;;;;;;;;;;5095057;28;20024;-67
2024/03/01 04:33:20;;;;;;;1.15;1.15;;;;;;;;;;5095493;28;20034;-67
2024/03/01 04:35:47;;;;;;;1.20;1.20;;;;;;;;;;5099278;28;20048;-68
2024/03/01 04:38:13;;;;;;;1.10;1.10;;;;;;;;;;5100282;28;20035;-67
2024/03/01 04:40:43;;;;;;;1.17;1.17;;;;;;;;;;5098558;27;20027;-68
2024/03/01 04:43:09;;;;;;;1.20;1.20;;;;;;;;;;5103998;27;20506;-68
2024/03/01 04:45:35;;;;;;;1.30;1.30;;;;;;;;;;5077180;28;20020;-67
2024/03/01 04:48:01;;;;;;;1.17;1.17;;;;;;;;;;5097401;28;20043;-67
2024/03/01 04:50:27;;;;;;;1.00;1.00;;;;;;;;;;5098704;28;20032;-67
2024/03/01 04:52:54;;;;;;;1.00;1.00;;;;;;;;;;5094994;28;20117;-68
2024/03/01 04:55:20;;;;;;;1.13;1.13;;;;;;;;;;5104555;28;20481;-67
2024/03/01 04:57:46;;;;;;;1.20;1.20;;;;;;;;;;5089186;28;20031;-67
2024/03/01 05:00:13;;;;;;;1.20;1.20;;;;;;;;;;5095635;28;20382;-68
2024/03/01 05:02:43;;;;;;;2.53;2.38;;;;;;;;;;5080065;28;20024;-67
2024/03/01 05:05:10;;;;;;;1.20;1.20;;;;;;;;;;5079375;28;20026;-68
2024/03/01 05:07:36;;;;;;;1.30;1.30;;;;;;;;;;5096923;28;20111;-67
2024/03/01 05:10:08;;;;;;;0.93;0.93;;;;;;;;;;5094502;28;20043;-68
2024/03/01 05:12:38;;;;;;;1.20;1.20;;;;;;;;;;5081457;28;20043;-67
2024/03/01 05:15:05;;;;;;;1.10;1.10;;;;;;;;;;5089545;28;20044;-67
2024/03/01 05:17:35;;;;;;;1.23;1.23;;;;;;;;;;5085979;28;20514;-66
2024/03/01 05:20:01;;;;;;;1.13;1.13;;;;;;;;;;5099543;28;20491;-67
2024/03/01 05:22:27;;;;;;;1.30;1.30;;;;;;;;;;5096481;28;20063;-67
2024/03/01 05:24:54;;;;;;;1.30;1.30;;;;;;;;;;5080777;28;20039;-67
2024/03/01 05:27:20;;;;;;;1.40;1.40;;;;;;;;;;5078328;28;20560;-66
2024/03/01 05:29:46;;;;;;;1.20;1.20;;;;;;;;;;5084137;28;20016;-67
2024/03/01 05:32:12;;;;;;;1.35;1.35;;;;;;;;;;5094930;28;20036;-67
2024/03/01 05:34:38;;;;;;;1.30;1.30;;;;;;;;;;5090430;28;20028;-67
2024/03/01 05:37:05;;;;;;;1.27;1.27;;;;;;;;;;5081125;28;20079;-67
2024/03/01 05:39:31;;;;;;;1.30;1.30;;;;;;;;;;5099119;28;20020;-67
2024/03/01 05:41:57;;;;;;;1.40;1.40;;;;;;;;;;5096711;28;20850;-67
2024/03/01 05:44:26;;;;;;;1.02;1.02;;;;;;;;;;5097668;28;20035;-68
2024/03/01 05:46:53;;;;;;;1.30;1.30;;;;;;;;;;5098901;28;20444;-66
2024/03/01 05:49:19;;;;;;;1.13;1.13;;;;;;;;;;5085248;28;20128;-67
2024/03/01 05:51:45;;;;;;;1.35;1.35;;;;;;;;;;5096882;28;20043;-67
2024/03/01 05:54:14;;;;;;;1.30;1.30;;;;;;;;;;5095916;28;20508;-66
2024/03/01 05:56:41;;;;;;;1.55;1.45;;;;;;;;;;5095028;28;20024;-67
2024/03/01 05:59:07;;;;;;;1.48;1.40;;;;;;;;;;5095996;27;20468;-67
2024/03/01 06:01:34;;;;;;;1.20;1.20;;;;;;;;;;5072294;28;20656;-67
2024/03/01 06:04:09;;;;;;;1.20;1.20;;;;;;;;;;5075381;28;20031;-67
2024/03/01 06:06:36;;;;;;;1.25;1.25;;;;;;;;;;5092033;28;20519;-67
2024/03/01 06:09:02;;;;;;;1.20;1.20;;;;;;;;;;5101984;28;20030;-67
2024/03/01 06:11:28;;;;;;;1.45;1.45;;;;;;;;;;5079548;28;20215;-67
2024/03/01 06:13:54;;;;;;;1.20;1.20;;;;;;;;;;5098869;28;20020;-67
2024/03/01 06:16:23;;;;;;;1.25;1.25;;;;;;;;;;5088345;28;20531;-67
2024/03/01 06:18:49;;;;;;;1.55;1.45;;;;;;;;;;5095296;28;20028;-67
2024/03/01 06:21:22;;;;;;;1.25;1.25;;;;;;;;;;5083968;28;20016;-69
2024/03/01 06:23:49;;;;;;;1.45;1.40;;;;;;;;;;5078679;27;20035;-66
2024/03/01 06:26:15;;;;;;;1.20;1.20;;;;;;;;;;5081907;28;20024;-67
2024/03/01 06:28:45;;;;;;;1.23;1.23;;;;;;;;;;5096425;28;20035;-67
2024/03/01 06:31:11;;;;;;;1.40;1.40;;;;;;;;;;5093096;28;20019;-67
2024/03/01 06:33:40;;;;;;;1.33;1.30;;;;;;;;;;5099372;27;20065;-67
2024/03/01 06:36:07;;;;;;;1.30;1.30;;;;;;;;;;5096331;28;20040;-67
2024/03/01 06:38:33;;;;;;;1.05;1.05;;;;;;;;;;5073861;28;20040;-67
2024/03/01 06:41:00;;;;;;;1.15;1.15;;;;;;;;;;5081934;28;20037;-67
2024/03/01 06:43:26;;;;;;;1.00;1.00;;;;;;;;;;5077461;28;20389;-67
2024/03/01 06:45:52;;;;;;;1.20;1.20;;;;;;;;;;5081599;28;20377;-67
2024/03/01 06:48:20;;;;;;;1.30;1.30;;;;;;;;;;5087050;28;20558;-69
2024/03/01 06:50:47;;;;;;;1.40;1.40;;;;;;;;;;5093264;28;20106;-69
2024/03/01 06:53:13;;;;;;;1.20;1.20;;;;;;;;;;5078072;28;20093;-68
2024/03/01 06:55:39;;;;;;;1.38;1.38;;;;;;;;;;5091054;28;20687;-69
2024/03/01 06:58:05;;;;;;;1.30;1.30;;;;;;;;;;5090232;28;20028;-68
2024/03/01 07:00:32;;;;;;;1.40;1.40;;;;;;;;;;5093530;28;20024;-68
2024/03/01 07:02:59;;;;;;;1.27;1.27;;;;;;;;;;5090907;28;20606;-68
2024/03/01 07:05:25;;;;;;;1.30;1.30;;;;;;;;;;5093884;27;20678;-68
2024/03/01 07:07:51;;;;;;;1.42;1.42;;;;;;;;;;5091871;28;20054;-67
2024/03/01 07:10:18;;;;;;;1.38;1.38;;;;;;;;;;5079136;28;20026;-68
2024/03/01 07:12:44;;;;;;;1.70;1.60;;;;;;;;;;5074313;28;20616;-68
2024/03/01 07:15:10;;;;;;;1.60;1.50;;;;;;;;;;5080738;28;20055;-68
2024/03/01 07:17:36;;;;;;;1.30;1.30;;;;;;;;;;5092206;27;20099;-68
2024/03/01 07:20:02;;;;;;;1.30;1.30;;;;;;;;;;5076528;28;20024;-68
2024/03/01 07:22:28;;;;;;;1.25;1.25;;;;;;;;;;5095660;28;20531;-70
2024/03/01 07:24:55;;;;;;;1.42;1.30;;;;;;;;;;5091960;28;20432;-68
2024/03/01 07:27:21;;;;;;;1.20;1.20;;;;;;;;;;5078654;28;20036;-68
2024/03/01 07:29:48;;;;;;;1.45;1.35;;;;;;;;;;5094070;28;20102;-69
2024/03/01 07:32:14;;;;;;;1.30;1.30;;;;;;;;;;5101240;28;20089;-68
2024/03/01 07:34:40;;;;;;;1.70;1.60;;;;;;;;;;5104553;28;20088;-68
2024/03/01 07:37:06;;;;;;;1.52;1.50;;;;;;;;;;5096701;28;20052;-68
2024/03/01 07:39:32;;;;;;;1.48;1.42;;;;;;;;;;5088658;28;20493;-68
2024/03/01 07:41:59;;;;;;;2.05;1.95;;;;;;;;;;5093088;28;20042;-68
2024/03/01 07:44:25;;;;;;;2.00;1.90;;;;;;;;;;5094923;28;20038;-68
2024/03/01 07:46:57;;;;;;;1.45;1.45;;;;;;;;;;5088444;28;20028;-68
2024/03/01 07:49:25;;;;;;;1.58;1.50;;;;;;;;;;5074394;28;20040;-68
2024/03/01 07:51:52;;;;;;;1.50;1.50;;;;;;;;;;5094891;28;20035;-67
2024/03/01 07:54:19;;;;;;;1.35;1.33;;;;;;;;;;5091605;28;20032;-70
2024/03/01 07:56:45;;;;;;;1.90;1.75;;;;;;;;;;5097758;28;20073;-68
2024/03/01 07:59:11;;;;;;;2.15;2.03;;;;;;;;;;5093451;28;20693;-68
2024/03/01 08:01:38;;;;;;;2.00;1.90;;;;;;;;;;5096934;28;20019;-68
2024/03/01 08:04:04;;;;;;;2.53;2.35;;;;;;;;;;5100216;28;20039;-68
2024/03/01 08:06:31;;;;;;;1.95;1.80;;;;;;;;;;5093983;28;20024;-68
2024/03/01 08:08:57;;;;;;;2.90;2.42;;;;;;;;;;5085001;27;20035;-68
2024/03/01 08:11:40;;;;;;;2.60;2.22;;;;;;;;;;5098301;28;20517;-68
2024/03/01 08:14:09;;;;;;;2.10;1.90;;;;;;;;;;5079989;27;20107;-68
2024/03/01 08:16:36;;;;;;;2.92;2.70;;;;;;;;;;5082504;28;20103;-70
2024/03/01 08:19:02;;;;;;;3.05;2.60;;;;;;;;;;5105391;28;20110;-68
2024/03/01 08:21:28;;;;;;;2.10;2.00;;;;;;;;;;5097133;27;20032;-68
2024/03/01 08:23:55;;;;;;;2.58;1.95;;;;;;;;;;5103078;28;20032;-69
2024/03/01 08:26:23;;;;;;;2.80;2.33;;;;;;;;;;5096646;28;20073;-68
2024/03/01 08:28:49;;;;;;;2.65;2.50;;;;;;;;;;5098194;28;20451;-69
2024/03/01 08:31:25;;;;;;;3.17;2.15;;;;;;;;;;5104718;28;20067;-68
2024/03/01 08:33:58;;;;;;;1.80;1.70;;;;;;;;;;5101312;28;20024;-68
2024/03/01 08:36:25;;;;;;;2.15;2.05;;;;;;;;;;5079278;28;20509;-69
2024/03/01 08:38:59;;;;;;;2.80;2.55;;;;;;;;;;5094338;28;20027;-68
2024/03/01 08:41:25;;;;;;;1.63;1.55;;;;;;;;;;5099356;28;20093;-68
2024/03/01 08:43:52;;;;;;;3.22;2.75;;;;;;;;;;5088220;28;20028;-69
2024/03/01 08:46:36;;;;;;;3.00;2.78;;;;;;;;;;5071681;28;20485;-68
2024/03/01 08:49:22;;;;;;;2.78;2.53;;;;;;;;;;5090440;28;20034;-68
2024/03/01 08:51:48;;;;;;;;;;;;;;;;;;5089966;28;20438;-68
2024/03/01 08:54:15;;;;;;;3.00;2.63;;;;;;;;;;5095508;28;19908;-68
2024/03/01 08:56:41;;;;;;;2.78;2.13;;;;;;;;;;5076968;28;20023;-69
2024/03/01 08:59:30;;;;;;;2.95;2.72;;;;;;;;;;5099593;28;20030;-68
2024/03/01 09:01:56;;;;;;;5.18;3.88;;;;;;;;;;5090566;28;20105;-68
2024/03/01 09:04:29;;;;;;;5.07;3.40;;;;;;;;;;5094497;28;20028;-70
2024/03/01 09:07:05;;;;;;;2.03;1.90;;;;;;;;;;5092779;28;20483;-70
2024/03/01 09:09:31;;;;;;;1.88;1.67;;;;;;;;;;5096127;28;20145;-68
2024/03/01 09:11:57;;;;;;;3.70;2.58;;;;;;;;;;5104734;27;20067;-70
2024/03/01 09:14:31;;;;;;;1.63;1.50;;;;;;;;;;5094336;28;20024;-69
2024/03/01 09:16:59;;;;;;;2.22;1.80;;;;;;;;;;5090689;28;20054;-70
2024/03/01 09:19:25;;;;;;;2.58;2.38;;;;;;;;;;5089095;28;20091;-70
2024/03/01 09:21:52;;;;;;;1.80;1.70;;;;;;;;;;5098494;28;20047;-70
2024/03/01 09:24:19;;;;;;;2.03;1.92;;;;;;;;;;5074482;28;20086;-69
2024/03/01 09:26:46;;;;;;;2.00;1.80;;;;;;;;;;5091334;28;20024;-68
2024/03/01 09:29:37;;;;;;;2.72;2.05;;;;;;;;;;5096499;28;20027;-68
2024/03/01 09:32:04;;;;;;;2.63;1.80;;;;;;;;;;5094335;27;20076;-68
2024/03/01 09:34:34;;;;;;;2.50;2.30;;;;;;;;;;5089405;28;20580;-69
2024/03/01 09:37:01;;;;;;;3.42;3.13;;;;;;;;;;5086023;28;20039;-69
2024/03/01 09:39:29;;;;;;;2.17;2.08;;;;;;;;;;5099939;27;20016;-68
2024/03/01 09:42:15;;;;;;;2.92;1.90;;;;;;;;;;5086931;28;20024;-68
2024/03/01 09:44:44;;;;;;;2.92;2.72;;;;;;;;;;5068880;28;20031;-68
2024/03/01 09:47:18;;;;;;;3.88;3.10;;;;;;;;;;5080468;28;20077;-70
2024/03/01 09:49:52;;;;;;;2.65;2.45;;;;;;;;;;5093646;28;20031;-68
2024/03/01 09:52:38;;;;;;;3.22;2.83;;;;;;;;;;5086504;28;20122;-68
2024/03/01 09:55:16;;;;;;;2.42;2.33;;;;;;;;;;5072960;28;20173;-68
2024/03/01 09:57:48;;;;;;;5.65;4.00;;;;;;;;;;5092900;28;20437;-71
2024/03/01 10:00:37;;;;;;;3.15;2.28;;;;;;;;;;5096520;28;20055;-67
2024/03/01 10:03:14;;;;;;;1.77;1.67;;;;;;;;;;5084592;28;20043;-67
2024/03/01 10:05:47;;;;;;;4.35;2.83;;;;;;;;;;5078536;28;20394;-68
2024/03/01 10:08:49;;;;;;;7.50;4.90;;;;;;;;;;5077664;28;20020;-68
2024/03/01 10:11:40;;;;;;;2.65;2.38;;;;;;;;;;5008884;28;20121;-68
2024/03/01 10:14:26;;;;;;;2.45;2.25;;;;;;;;;;5092250;28;20489;-68
2024/03/01 10:17:12;;;;;;;2.75;2.45;;;;;;;;;;5075131;28;20462;-68
2024/03/01 10:19:45;;;;;;;3.90;3.55;;;;;;;;;;5085405;28;20085;-69
2024/03/01 10:22:18;;;;;;;2.30;2.05;;;;;;;;;;5075525;28;20508;-69
2024/03/01 10:24:44;;;;;;;3.83;3.13;;;;;;;;;;5093762;28;20598;-69
2024/03/01 10:27:26;;;;;;;2.95;2.58;;;;;;;;;;5090888;28;20032;-70
2024/03/01 10:29:59;;;;;;;3.35;2.40;;;;;;;;;;5083922;28;20387;-69
2024/03/01 10:32:31;;;;;;;4.10;2.83;;;;;;;;;;5095022;28;20361;-68
2024/03/01 10:35:09;;;;;;;2.25;2.05;;;;;;;;;;5087493;28;20039;-68
2024/03/01 10:37:59;;;;;;;3.25;2.45;;;;;;;;;;5087169;28;20512;-69
2024/03/01 10:40:26;;;;;;;2.55;2.38;;;;;;;;;;5095460;28;20016;-69
2024/03/01 10:43:02;;;;;;;2.45;2.20;;;;;;;;;;5083566;28;20556;-69
2024/03/01 10:45:38;;;;;;;3.17;2.60;;;;;;;;;;5089799;28;20127;-69
2024/03/01 10:48:04;;;;;;;2.17;1.60;;;;;;;;;;5070777;28;20028;-69
2024/03/01 10:50:36;;;;;;;2.70;2.50;;;;;;;;;;5092104;28;20028;-69
2024/03/01 10:53:35;;;;;;;2.22;2.03;;;;;;;;;;5078895;28;20039;-69
2024/03/01 10:56:05;;;;;;;2.45;2.25;;;;;;;;;;5026538;28;20116;-68
2024/03/01 10:58:52;;;;;;;1.60;1.50;;;;;;;;;;5099358;28;20028;-68
2024/03/01 11:01:42;;;;;;;3.50;3.20;;;;;;;;;;5087935;28;20024;-69
2024/03/01 11:04:34;;;;;;;2.13;2.03;;;;;;;;;;5094841;28;20034;-69
2024/03/01 11:07:13;;;;;;;2.35;2.15;;;;;;;;;;5042644;28;20063;-70
2024/03/01 11:09:44;;;;;;;2.50;2.25;;;;;;;;;;5093199;28;20019;-69
2024/03/01 11:12:18;;;;;;;2.63;2.30;;;;;;;;;;5104344;28;20480;-69
2024/03/01 11:15:03;;;;;;;3.83;3.42;;;;;;;;;;5096753;28;20294;-69
2024/03/01 11:17:30;;;;;;;3.13;2.10;;;;;;;;;;5078928;28;20051;-69
2024/03/01 11:19:58;;;;;;;2.22;2.03;;;;;;;;;;5073180;28;20016;-69
2024/03/01 11:22:26;;;;;;;3.00;2.80;;;;;;;;;;5076766;28;20566;-69
2024/03/01 11:25:05;;;;;;;2.83;2.63;;;;;;;;;;5087605;28;20541;-69
2024/03/01 11:27:36;;;;;;;2.65;2.45;;;;;;;;;;5088095;27;20468;-68
2024/03/01 11:30:06;;;;;;;4.55;3.80;;;;;;;;;;5091453;28;20610;-68
2024/03/01 11:32:45;;;;;;;8.65;6.25;;;;;;;;;;5090577;28;20070;-68
2024/03/01 11:35:22;;;;;;;5.20;3.85;;;;;;;;;;5088293;28;21393;-68
2024/03/01 11:38:02;;;;;;;6.20;4.53;;;;;;;;;;5092602;28;20497;-68
2024/03/01 11:40:29;;;;;;;3.70;2.72;;;;;;;;;;5087458;28;20024;-68
2024/03/01 11:42:55;;;;;;;1.92;1.80;;;;;;;;;;5091447;28;20098;-68
2024/03/01 11:45:33;;;;;;;6.07;3.63;;;;;;;;;;5089803;28;20585;-67
2024/03/01 11:48:09;;;;;;;3.47;2.13;;;;;;;;;;5090506;28;20035;-68
2024/03/01 11:50:35;;;;;;;;;;;;;;;;;;5099655;28;20623;-69
2024/03/01 11:53:15;;;;;;;3.35;1.77;;;;;;;;;;5092473;28;19911;-72
2024/03/01 11:55:41;;;;;;;5.57;1.83;;;;;;;;;;5097233;28;20028;-68
2024/03/01 11:58:24;;;;;;;2.35;2.15;;;;;;;;;;5098864;28;20019;-68
2024/03/01 12:01:10;;;;;;;1.92;1.83;;;;;;;;;;5095061;28;20119;-68
2024/03/01 12:03:36;;;;;;;4.00;2.15;;;;;;;;;;5097085;28;20020;-68
2024/03/01 12:06:23;;;;;;;2.17;2.00;;;;;;;;;;5085921;28;20028;-69
2024/03/01 12:08:53;;;;;;;1.98;1.80;;;;;;;;;;5094833;28;20027;-68
2024/03/01 12:11:38;;;;;;;3.17;1.77;;;;;;;;;;5089894;28;20081;-68
2024/03/01 12:14:09;;;;;;;1.60;1.50;;;;;;;;;;5089026;28;20028;-67
2024/03/01 12:16:41;;;;;;;3.03;2.05;;;;;;;;;;5093382;28;20111;-68
2024/03/01 12:19:17;;;;;;;1.70;1.60;;;;;;;;;;5082384;28;20487;-68
2024/03/01 12:21:43;;;;;;;1.50;1.48;;;;;;;;;;5095458;28;20092;-67
2024/03/01 12:24:30;;;;;;;2.00;1.90;;;;;;;;;;5096013;28;20040;-67
2024/03/01 12:27:03;;;;;;;2.33;1.75;;;;;;;;;;5093760;28;20037;-68
2024/03/01 12:29:48;;;;;;;1.60;1.50;;;;;;;;;;5078754;28;20039;-68
2024/03/01 12:32:18;;;;;;;11.00;1.77;;;;;;;;;;5088966;28;20069;-67
2024/03/01 12:34:44;;;;;;;6.05;2.10;;;;;;;;;;5095832;28;20043;-67
2024/03/01 12:37:24;;;;;;;1.92;1.83;;;;;;;;;;5095684;28;20048;-68
2024/03/01 12:40:04;;;;;;;2.38;2.28;;;;;;;;;;5091347;28;20417;-68
2024/03/01 12:42:37;;;;;;;1.75;1.60;;;;;;;;;;5094168;28;20031;-67
2024/03/01 12:45:05;;;;;;;4.05;2.67;;;;;;;;;;5094925;27;20040;-72
2024/03/01 12:47:37;;;;;;;6.32;1.98;;;;;;;;;;5093481;28;20119;-68
2024/03/01 12:50:03;;;;;;;1.88;1.73;;;;;;;;;;5092798;27;20024;-68
2024/03/01 12:52:29;;;;;;;1.60;1.50;;;;;;;;;;5097370;28;20023;-68
2024/03/01 12:55:00;;;;;;;6.13;2.25;;;;;;;;;;5086453;28;20027;-67
2024/03/01 12:57:45;;;;;;;3.83;1.65;;;;;;;;;;5100957;28;20502;-68
2024/03/01 13:00:19;;;;;;;1.70;1.60;;;;;;;;;;5101116;27;20034;-68
2024/03/01 13:02:57;;;;;;;6.15;2.38;;;;;;;;;;5084305;28;20024;-68
2024/03/01 13:05:24;;;;;;;1.20;1.20;;;;;;;;;;5079094;28;20063;-69
2024/03/01 13:07:53;;;;;;;1.60;1.58;;;;;;;;;;5092804;28;20570;-68
2024/03/01 13:10:19;;;;;;;2.50;1.50;;;;;;;;;;5102062;28;20034;-68
2024/03/01 13:12:50;;;;;;;2.03;1.83;;;;;;;;;;5096339;28;20489;-68
2024/03/01 13:15:16;;;;;;;1.80;1.70;;;;;;;;;;5093145;28;20473;-70
2024/03/01 13:18:01;;;;;;;2.00;1.30;;;;;;;;;;5092401;28;20095;-68
2024/03/01 13:20:46;;;;;;;1.50;1.40;;;;;;;;;;5099714;28;20020;-68
2024/03/01 13:23:31;;;;;;;1.73;1.63;;;;;;;;;;5094288;28;20046;-68
2024/03/01 13:25:57;;;;;;;1.52;1.50;;;;;;;;;;5092909;28;20051;-69
2024/03/01 13:28:26;;;;;;;2.78;1.55;;;;;;;;;;5074141;28;20507;-72
2024/03/01 13:30:56;;;;;;;3.65;3.20;;;;;;;;;;5102719;28;20028;-68
2024/03/01 13:33:38;;;;;;;7.03;1.90;;;;;;;;;;5094724;28;20086;-69
2024/03/01 13:36:10;;;;;;;1.92;1.75;;;;;;;;;;5097594;28;20306;-69
2024/03/01 13:39:10;;;;;;;5.55;2.35;;;;;;;;;;5094834;28;20032;-69
2024/03/01 13:41:38;;;;;;;4.05;2.40;;;;;;;;;;5058432;28;20028;-69
2024/03/01 13:44:23;;;;;;;2.55;1.90;;;;;;;;;;5099485;28;20480;-68
2024/03/01 13:46:54;;;;;;;4.60;2.13;;;;;;;;;;5092557;28;20450;-68
2024/03/01 13:49:24;;;;;;;4.85;2.70;;;;;;;;;;5094960;28;20069;-68
2024/03/01 13:51:51;;;;;;;2.38;1.70;;;;;;;;;;5098698;28;20024;-70
2024/03/01 13:54:17;;;;;;;8.00;2.97;;;;;;;;;;5077042;28;21006;-64
2024/03/01 13:56:45;;;;;;;2.22;2.13;;;;;;;;;;5080587;28;20028;-65
2024/03/01 13:59:12;;;;;;;2.10;1.90;;;;;;;;;;5078433;28;20413;-64
2024/03/01 14:01:38;;;;;;;1.85;1.75;;;;;;;;;;5095868;28;20032;-67
2024/03/01 14:04:06;;;;;;;3.00;1.98;;;;;;;;;;5104757;27;20027;-65
2024/03/01 14:06:32;;;;;;;6.10;2.03;;;;;;;;;;5101040;28;20080;-70
2024/03/01 14:09:12;;;;;;;2.05;1.95;;;;;;;;;;5099868;27;20032;-69
2024/03/01 14:11:38;;;;;;;3.67;1.95;;;;;;;;;;5108531;28;20038;-70
2024/03/01 14:14:05;;;;;;;4.80;2.20;;;;;;;;;;5107581;27;20035;-66
2024/03/01 14:16:33;;;;;;;2.25;2.05;;;;;;;;;;5106764;28;20101;-69
2024/03/01 14:19:00;;;;;;;1.63;1.52;;;;;;;;;;5102711;27;20027;-68
2024/03/01 14:21:30;;;;;;;7.45;2.00;;;;;;;;;;5108044;28;20076;-68
2024/03/01 14:24:00;;;;;;;2.35;2.15;;;;;;;;;;5089534;28;20401;-70
2024/03/01 14:26:27;;;;;;;3.25;2.08;;;;;;;;;;5089838;28;20023;-71
2024/03/01 14:28:53;;;;;;;5.68;1.70;;;;;;;;;;5092054;28;20441;-70
2024/03/01 14:31:19;;;;;;;3.47;1.83;;;;;;;;;;5106505;28;20019;-68
2024/03/01 14:33:59;;;;;;;4.28;2.40;;;;;;;;;;5104615;28;20024;-70
2024/03/01 14:36:26;;;;;;;13.82;3.22;;;;;;;;;;5109449;28;20043;-66
2024/03/01 14:38:55;;;;;;;2.58;2.38;;;;;;;;;;5091750;28;20080;-66
2024/03/01 14:41:25;;;;;;;4.00;2.97;;;;;;;;;;5107820;28;20529;-65
2024/03/01 14:43:53;;;;;;;6.50;3.75;;;;;;;;;;5107937;27;20059;-66
2024/03/01 14:46:39;;;;;;;8.65;3.67;;;;;;;;;;5086856;28;20371;-66
2024/03/01 14:49:16;;;;;;;3.88;2.53;;;;;;;;;;5104127;28;20447;-65
2024/03/01 14:51:46;;;;;;;3.30;2.60;;;;;;;;;;5106155;28;20042;-65
2024/03/01 14:54:21;;;;;;;2.45;2.17;;;;;;;;;;5103861;27;20023;-66
2024/03/01 14:56:50;;;;;;;8.07;3.37;;;;;;;;;;5097870;28;20034;-66
2024/03/01 14:59:17;;;;;;;3.47;2.58;;;;;;;;;;5099626;27;20027;-66